Time;durP1;ratioP1;P1;durP2;ratioP2;P2;SDS_P1;SDS_P2;PMS_P1;PMS_P2;Temp;Humidity;BMP_temperature;BMP_pressure;BME280_temperature;BME280_humidity;BME280_pressure;Samples;Min_cycle;Max_cycle;Signal;HPM_P1;HPM_P2
2023/05/01 22:17:59;;;;;;;17.73;6.35;;;20.70;51.20;;;;;;5090767;28;20893;-72
2023/05/01 22:20:25;;;;;;;19.38;6.90;;;21.10;53.70;;;;;;5079484;28;20519;-72
2023/05/01 22:22:50;;;;;;;17.13;7.00;;;21.20;53.20;;;;;;5078396;28;20021;-71
2023/05/01 22:25:16;;;;;;;24.05;8.18;;;21.20;54.50;;;;;;5076258;28;20457;-75
2023/05/01 22:27:42;;;;;;;19.42;7.22;;;21.20;54.60;;;;;;5042999;28;20020;-71
2023/05/01 22:30:09;;;;;;;19.23;7.50;;;21.30;55.70;;;;;;5080775;28;20100;-72
2023/05/01 22:32:34;;;;;;;16.17;6.50;;;21.30;56.50;;;;;;5078486;28;20489;-72
2023/05/01 22:35:00;;;;;;;20.38;7.88;;;21.30;56.10;;;;;;5068036;28;20035;-72
2023/05/01 22:37:26;;;;;;;26.05;7.68;;;21.30;59.20;;;;;;5068384;28;20037;-73
2023/05/01 22:39:52;;;;;;;30.15;7.35;;;21.30;56.80;;;;;;5065307;28;20032;-72
2023/05/01 22:42:18;;;;;;;32.28;7.53;;;21.20;58.40;;;;;;5065923;28;20031;-74
2023/05/01 22:44:44;;;;;;;25.10;6.82;;;21.20;58.10;;;;;;5032800;28;20393;-74
2023/05/01 22:47:10;;;;;;;31.60;7.70;;;21.20;57.80;;;;;;5065511;28;20098;-73
2023/05/01 22:49:36;;;;;;;29.33;7.07;;;21.20;57.30;;;;;;5066248;28;20444;-75
2023/05/01 22:52:02;;;;;;;21.02;7.38;;;21.20;57.00;;;;;;5062844;28;20116;-75
2023/05/01 22:54:27;;;;;;;15.73;5.80;;;21.10;57.40;;;;;;5066985;28;20025;-74
2023/05/01 22:56:53;;;;;;;15.65;6.07;;;21.10;56.90;;;;;;5066474;28;20385;-74
2023/05/01 22:59:20;;;;;;;21.30;6.63;;;21.10;56.60;;;;;;5066813;28;20040;-75
2023/05/01 23:01:46;;;;;;;15.25;6.03;;;21.10;56.40;;;;;;5068551;28;20055;-74
2023/05/01 23:04:12;;;;;;;22.15;6.32;;;21.10;56.30;;;;;;5067032;28;20528;-73
2023/05/01 23:06:39;;;;;;;29.42;6.75;;;21.10;56.30;;;;;;5067071;28;20439;-74
2023/05/01 23:09:05;;;;;;;14.32;6.00;;;21.10;56.20;;;;;;5065521;28;20036;-75
2023/05/01 23:11:32;;;;;;;15.52;5.72;;;21.10;56.00;;;;;;5065824;28;20059;-76
2023/05/01 23:13:58;;;;;;;17.55;5.70;;;21.10;56.00;;;;;;5066730;28;20048;-74
2023/05/01 23:16:25;;;;;;;14.55;5.90;;;21.10;56.00;;;;;;5065009;28;20675;-74
2023/05/01 23:18:51;;;;;;;18.77;5.90;;;21.10;55.90;;;;;;5053488;28;20458;-72
2023/05/01 23:21:18;;;;;;;21.92;5.80;;;21.10;55.70;;;;;;5053586;28;20033;-75
2023/05/01 23:23:45;;;;;;;16.65;5.97;;;21.10;55.70;;;;;;5048770;28;20078;-75
2023/05/01 23:26:27;;;;;;;18.90;6.00;;;21.10;55.60;;;;;;5052439;28;20025;-74
2023/05/01 23:28:53;;;;;;;29.52;6.32;;;21.10;55.50;;;;;;5051210;28;20029;-74
2023/05/01 23:31:28;;;;;;;12.05;5.50;;;21.10;55.50;;;;;;5052886;28;20021;-73
2023/05/01 23:33:54;;;;;;;16.27;5.53;;;21.10;55.50;;;;;;5051188;28;20029;-74
2023/05/01 23:36:20;;;;;;;12.35;5.25;;;21.10;55.40;;;;;;5034585;28;20115;-75
2023/05/01 23:38:46;;;;;;;13.77;5.05;;;21.10;55.30;;;;;;5050671;28;20474;-74
2023/05/01 23:41:13;;;;;;;17.60;6.00;;;21.10;55.10;;;;;;5051899;28;20060;-74
2023/05/01 23:43:39;;;;;;;11.98;5.47;;;21.10;55.30;;;;;;5052662;28;20501;-75
2023/05/01 23:46:06;;;;;;;12.05;5.40;;;21.10;54.60;;;;;;5052367;28;20021;-74
2023/05/01 23:48:33;;;;;;;13.93;5.22;;;21.10;55.20;;;;;;5047414;28;20028;-74
2023/05/01 23:50:59;;;;;;;13.02;5.15;;;21.00;55.00;;;;;;5052254;28;20032;-74
2023/05/01 23:53:26;;;;;;;13.32;5.25;;;21.00;55.00;;;;;;5050903;28;20449;-74
2023/05/01 23:55:52;;;;;;;11.40;5.00;;;21.00;54.80;;;;;;5054478;28;20120;-74
2023/05/01 23:58:18;;;;;;;10.90;5.18;;;21.00;55.00;;;;;;5055141;28;20021;-74
